Time;durP1;ratioP1;P1;durP2;ratioP2;P2;SDS_P1;SDS_P2;PMS_P1;PMS_P2;Temp;Humidity;BMP_temperature;BMP_pressure;BME280_temperature;BME280_humidity;BME280_pressure;Samples;Min_cycle;Max_cycle;Signal;HPM_P1;HPM_P2
2022/03/01 00:01:44;;;;;;;24.05;14.20;;;;;;;-0.26;58.76;101274.78;10377746;28;20121;-69
2022/03/01 00:06:46;;;;;;;22.52;14.90;;;;;;;-0.26;58.87;101269.66;10381496;28;20064;-69
2022/03/01 00:11:48;;;;;;;23.45;14.52;;;;;;;-0.22;58.58;101271.38;10380371;28;20083;-70
2022/03/01 00:16:50;;;;;;;34.15;18.55;;;;;;;-0.24;58.78;101281.66;10382546;28;20580;-70
2022/03/01 00:21:51;;;;;;;26.60;16.00;;;;;;;-0.35;58.58;101280.72;10377370;28;20065;-70
2022/03/01 00:26:53;;;;;;;25.40;16.30;;;;;;;-0.34;58.71;101283.34;10379124;28;20053;-70
2022/03/01 00:31:57;;;;;;;29.38;16.33;;;;;;;-0.35;58.93;101283.31;10380707;28;20053;-70
2022/03/01 00:36:59;;;;;;;28.95;17.85;;;;;;;-0.50;58.92;101286.66;10382503;28;20711;-70
2022/03/01 00:42:01;;;;;;;31.80;18.40;;;;;;;-0.55;58.99;101292.59;10380825;28;20053;-70
2022/03/01 00:47:03;;;;;;;35.03;19.60;;;;;;;-0.58;59.29;101290.03;10381092;28;20131;-70
2022/03/01 00:52:05;;;;;;;33.60;20.08;;;;;;;-0.54;59.19;101282.34;10381449;28;20414;-70
2022/03/01 00:57:07;;;;;;;34.40;19.08;;;;;;;-0.63;59.26;101282.28;10381129;28;20136;-70
2022/03/01 01:02:08;;;;;;;28.42;16.95;;;;;;;-0.62;59.63;101291.72;10387908;28;20505;-70
2022/03/01 01:07:10;;;;;;;25.70;15.07;;;;;;;-0.62;59.60;101289.16;10388829;28;20494;-69
2022/03/01 01:12:12;;;;;;;29.42;18.13;;;;;;;-0.65;59.62;101293.38;10388098;28;20515;-69
2022/03/01 01:17:14;;;;;;;32.47;17.98;;;;;;;-0.68;59.62;101289.09;10388692;28;20042;-69
2022/03/01 01:27:38;;;;;;;25.52;14.68;;;;;;;-0.87;60.11;101302.66;10383274;28;20382;-69
2022/03/01 01:32:40;;;;;;;27.23;15.07;;;;;;;-1.01;59.70;101293.09;10387219;28;21175;-69
2022/03/01 01:37:43;;;;;;;23.20;15.27;;;;;;;-1.06;60.36;101287.09;10387719;28;20045;-69
2022/03/01 01:42:45;;;;;;;21.08;14.68;;;;;;;-1.09;60.40;101280.19;10385617;28;20057;-68
2022/03/01 01:47:48;;;;;;;26.63;14.98;;;;;;;-1.21;60.33;101286.06;10386532;28;20049;-69
2022/03/01 01:52:52;;;;;;;18.98;13.98;;;;;;;-1.26;60.98;101276.63;10385882;28;20049;-69
2022/03/01 01:57:57;;;;;;;22.98;13.85;;;;;;;-1.35;60.85;101276.53;10387074;28;20140;-69
2022/03/01 02:02:59;;;;;;;22.27;14.80;;;;;;;-1.41;61.00;101281.63;10381594;28;20421;-68
2022/03/01 02:08:02;;;;;;;27.13;16.40;;;;;;;-1.50;60.81;101276.38;10381277;28;20512;-69
2022/03/01 02:13:03;;;;;;;24.17;16.10;;;;;;;-1.50;60.98;101277.25;10385288;28;20056;-68
2022/03/01 02:18:05;;;;;;;30.08;15.50;;;;;;;-1.44;61.13;101276.44;10385720;28;20053;-69
2022/03/01 02:23:07;;;;;;;23.35;14.45;;;;;;;-1.46;61.22;101273.00;10386187;28;20295;-69
2022/03/01 02:28:09;;;;;;;24.08;16.05;;;;;;;-1.38;61.24;101272.22;10385968;28;20063;-68
2022/03/01 02:33:11;;;;;;;21.13;15.05;;;;;;;-1.38;61.19;101272.22;10384143;28;20061;-68
2022/03/01 02:38:12;;;;;;;23.02;15.98;;;;;;;-1.55;61.48;101281.44;10385494;28;20080;-69
2022/03/01 02:43:14;;;;;;;24.67;15.73;;;;;;;-1.50;61.54;101284.94;10375578;28;20053;-68
2022/03/01 02:48:16;;;;;;;24.80;16.65;;;;;;;-1.41;61.60;101276.47;10383708;28;20409;-69
2022/03/01 02:53:17;;;;;;;28.58;17.63;;;;;;;-1.43;61.48;101270.47;10384404;28;20409;-68
2022/03/01 02:58:19;;;;;;;28.90;18.10;;;;;;;-1.49;61.48;101265.28;10384159;28;20550;-68
2022/03/01 03:03:21;;;;;;;25.05;17.30;;;;;;;-1.53;61.70;101266.09;10388497;28;20057;-69
2022/03/01 03:08:23;;;;;;;25.27;16.83;;;;;;;-1.57;61.57;101272.00;10391298;28;20402;-68
2022/03/01 03:13:25;;;;;;;27.70;16.70;;;;;;;-1.65;61.80;101273.63;10391087;28;20057;-68
2022/03/01 03:18:27;;;;;;;30.15;18.10;;;;;;;-1.68;62.02;101281.31;10391375;28;20068;-69
2022/03/01 03:23:28;;;;;;;28.10;17.30;;;;;;;-1.75;61.71;101282.94;10389085;28;20045;-68
2022/03/01 03:28:30;;;;;;;29.45;17.73;;;;;;;-1.87;62.17;101287.06;10390940;28;20059;-68
2022/03/01 03:33:32;;;;;;;28.92;18.08;;;;;;;-1.82;62.21;101277.72;10372690;28;20045;-68
2022/03/01 03:38:34;;;;;;;26.70;17.65;;;;;;;-1.72;62.11;101284.69;10392183;28;20110;-68
2022/03/01 03:43:35;;;;;;;25.00;17.23;;;;;;;-1.71;61.90;101284.69;10387798;28;20049;-68
2022/03/01 03:48:37;;;;;;;26.25;16.73;;;;;;;-1.70;61.94;101288.13;10390975;28;20060;-68
2022/03/01 03:53:39;;;;;;;28.67;17.92;;;;;;;-1.70;61.75;101280.44;10390725;28;20061;-68
2022/03/01 03:58:40;;;;;;;27.30;17.23;;;;;;;-1.84;62.01;101295.66;10392161;28;20561;-69
2022/03/01 04:03:42;;;;;;;28.38;17.27;;;;;;;-1.80;61.97;101301.69;10389166;28;20056;-68
2022/03/01 04:08:44;;;;;;;28.50;17.73;;;;;;;-1.78;61.99;101300.00;10386544;28;20068;-68
2022/03/01 04:13:46;;;;;;;31.65;17.30;;;;;;;-1.76;61.83;101299.19;10384788;28;20050;-68
2022/03/01 04:18:47;;;;;;;27.50;15.93;;;;;;;-1.82;62.25;101299.13;10385490;28;20053;-68
2022/03/01 04:23:49;;;;;;;26.60;16.63;;;;;;;-1.77;61.99;101304.28;10382158;28;20072;-67
2022/03/01 04:28:51;;;;;;;26.15;16.05;;;;;;;-1.79;61.95;101288.88;10384554;28;20057;-68
2022/03/01 04:33:54;;;;;;;27.77;15.52;;;;;;;-1.83;61.84;101292.25;10386461;28;20079;-68
2022/03/01 04:38:56;;;;;;;26.23;15.98;;;;;;;-1.81;61.87;101292.25;10387779;28;20080;-67
2022/03/01 04:43:58;;;;;;;25.17;15.50;;;;;;;-1.84;61.72;101287.09;10392304;28;20079;-68
2022/03/01 04:49:00;;;;;;;23.60;15.07;;;;;;;-1.90;61.69;101297.28;10391816;28;20045;-67
2022/03/01 04:54:01;;;;;;;25.20;16.10;;;;;;;-1.95;61.83;101289.53;10391545;28;20057;-67
2022/03/01 04:59:04;;;;;;;25.67;16.00;;;;;;;-2.06;62.20;101293.66;10378075;28;20092;-67
2022/03/01 05:04:05;;;;;;;22.42;15.20;;;;;;;-2.05;62.02;101290.25;10391464;28;20417;-68
2022/03/01 05:09:07;;;;;;;23.88;16.20;;;;;;;-2.07;62.10;101295.38;10389067;28;20336;-68
2022/03/01 05:14:09;;;;;;;26.25;16.05;;;;;;;-2.20;62.55;101287.50;10390821;28;20053;-68
2022/03/01 05:19:11;;;;;;;26.58;16.73;;;;;;;-2.27;62.41;101294.25;10390191;28;20053;-67
2022/03/01 05:24:14;;;;;;;26.00;15.18;;;;;;;-2.28;62.39;101291.66;10382474;28;20417;-68
2022/03/01 05:29:16;;;;;;;24.20;15.10;;;;;;;-2.25;62.58;101302.81;10390905;28;20253;-67
2022/03/01 05:34:18;;;;;;;24.08;15.45;;;;;;;-2.30;62.57;101299.31;10389745;28;20056;-68
2022/03/01 05:39:22;;;;;;;25.05;15.05;;;;;;;-2.35;62.63;101300.09;10389958;28;20136;-68
2022/03/01 05:44:24;;;;;;;20.15;14.00;;;;;;;-2.38;62.79;101300.03;10388121;28;20068;-68
2022/03/01 05:49:26;;;;;;;23.27;14.50;;;;;;;-2.44;62.80;101305.94;10389512;28;20510;-67
2022/03/01 05:54:28;;;;;;;22.15;14.88;;;;;;;-2.45;62.78;101301.66;10387172;28;20056;-68
2022/03/01 05:59:30;;;;;;;23.75;14.77;;;;;;;-2.46;62.79;101314.44;10388320;28;20047;-68
2022/03/01 06:04:31;;;;;;;23.17;14.20;;;;;;;-2.46;62.71;101312.75;10389277;28;20479;-67
2022/03/01 06:09:33;;;;;;;25.60;16.25;;;;;;;-2.44;62.57;101326.44;10387090;28;20412;-67
2022/03/01 06:14:35;;;;;;;33.58;18.85;;;;;;;-2.46;62.60;101332.38;10389029;28;20244;-67
2022/03/01 06:19:36;;;;;;;25.55;17.10;;;;;;;-2.52;62.64;101327.16;10388847;28;20037;-68
2022/03/01 06:24:42;;;;;;;24.25;15.48;;;;;;;-2.58;62.95;101327.06;10387880;28;20049;-67
2022/03/01 06:29:44;;;;;;;22.75;15.00;;;;;;;-2.49;63.00;101322.09;10388005;28;20607;-67
2022/03/01 06:34:46;;;;;;;24.55;14.95;;;;;;;-2.54;62.66;101331.41;10386511;28;20137;-66
2022/03/01 06:40:08;;;;;;;26.85;16.90;;;;;;;-2.59;63.00;101340.72;10387526;28;20049;-66
2022/03/01 06:45:10;;;;;;;23.52;15.15;;;;;;;-2.57;62.94;101347.56;10387445;28;20421;-67
2022/03/01 06:50:12;;;;;;;28.48;16.60;;;;;;;-2.35;62.78;101349.66;10386990;28;20303;-67
2022/03/01 06:55:15;;;;;;;27.48;15.98;;;;;;;-2.20;62.75;101347.28;10386827;28;20052;-67
2022/03/01 07:00:16;;;;;;;22.60;14.95;;;;;;;-2.05;62.62;101352.66;10386701;28;20136;-67
2022/03/01 07:05:19;;;;;;;29.42;17.13;;;;;;;-1.96;62.56;101356.19;10386552;28;20111;-67
2022/03/01 07:10:21;;;;;;;26.73;17.02;;;;;;;-1.77;62.42;101345.28;10384465;28;20046;-68
2022/03/01 07:15:23;;;;;;;28.85;18.77;;;;;;;-1.76;62.27;101342.78;10386843;28;20251;-68
2022/03/01 07:20:25;;;;;;;30.52;18.13;;;;;;;-1.53;62.08;101340.50;10385926;28;20049;-67
2022/03/01 07:25:26;;;;;;;26.75;16.70;;;;;;;-1.38;61.88;101338.94;10386268;28;20077;-68
2022/03/01 07:30:28;;;;;;;26.77;17.05;;;;;;;-1.20;61.71;101335.69;10384291;28;20405;-68
2022/03/01 07:35:30;;;;;;;28.75;16.85;;;;;;;-1.16;61.60;101338.31;10385913;28;20041;-68
2022/03/01 07:40:32;;;;;;;24.52;15.55;;;;;;;-1.08;61.83;101330.69;10385302;28;20053;-68
2022/03/01 07:45:34;;;;;;;23.83;15.55;;;;;;;-0.71;61.71;101343.00;10385813;28;20053;-68
2022/03/01 07:50:36;;;;;;;24.65;16.15;;;;;;;-0.42;61.17;101331.25;10384681;28;20034;-67
2022/03/01 07:55:38;;;;;;;28.63;17.15;;;;;;;-0.17;60.69;101334.84;10384616;28;20060;-68
2022/03/01 08:00:40;;;;;;;26.17;16.58;;;;;;;-0.06;60.32;101346.03;10385286;28;20046;-68
2022/03/01 08:05:42;;;;;;;22.73;14.52;;;;;;;0.48;58.78;101327.44;10384566;28;20132;-67
2022/03/01 08:10:44;;;;;;;24.98;14.38;;;;;;;0.83;57.45;101320.66;10390111;28;20053;-67
2022/03/01 08:16:06;;;;;;;;;;;;;;;0.94;56.32;101325.81;10393110;28;20052;-68
2022/03/01 08:21:08;;;;;;;26.17;14.48;;;;;;;1.37;56.32;101322.41;10392297;28;19972;-68
2022/03/01 08:26:09;;;;;;;27.35;14.88;;;;;;;1.47;55.48;101328.41;10385983;28;20137;-68
2022/03/01 08:31:11;;;;;;;23.08;14.77;;;;;;;1.81;54.60;101322.34;10393908;28;20440;-67
2022/03/01 08:36:13;;;;;;;28.40;14.10;;;;;;;2.40;53.93;101325.59;10393253;28;20045;-68
2022/03/01 08:41:15;;;;;;;27.35;14.30;;;;;;;2.76;53.00;101316.81;10392237;28;20242;-68
2022/03/01 08:46:17;;;;;;;25.08;14.32;;;;;;;2.72;52.62;101317.69;10393306;28;20346;-68
2022/03/01 08:51:21;;;;;;;27.38;14.02;;;;;;;2.98;51.40;101314.09;10389696;28;20616;-68
2022/03/01 08:56:23;;;;;;;25.17;15.55;;;;;;;3.38;50.93;101306.88;10392148;28;20415;-68
2022/03/01 09:01:25;;;;;;;23.60;13.68;;;;;;;3.54;50.12;101285.16;10383005;28;20075;-68
2022/03/01 09:06:27;;;;;;;23.17;13.73;;;;;;;3.45;49.76;101279.22;10390817;28;20045;-68
2022/03/01 09:11:30;;;;;;;24.17;13.93;;;;;;;3.72;49.24;101284.97;10374897;28;20224;-68
2022/03/01 09:16:32;;;;;;;22.75;13.10;;;;;;;3.90;47.47;101286.56;10381408;28;20048;-68
2022/03/01 09:21:34;;;;;;;20.60;12.82;;;;;;;3.97;47.53;101290.78;10384846;28;20115;-68
2022/03/01 09:26:36;;;;;;;22.40;13.10;;;;;;;4.19;47.19;101294.81;10388107;28;20128;-67
2022/03/01 09:31:38;;;;;;;20.92;12.52;;;;;;;4.51;46.64;101299.63;10387950;28;20061;-68
2022/03/01 09:36:39;;;;;;;24.05;13.15;;;;;;;4.61;45.25;101290.84;10390755;28;20053;-68
2022/03/01 09:41:41;;;;;;;21.92;12.32;;;;;;;5.02;44.29;101279.88;10388560;28;20059;-68
2022/03/01 09:46:44;;;;;;;25.23;12.40;;;;;;;4.87;43.54;101287.84;10387675;28;20462;-68
2022/03/01 09:51:50;;;;;;;20.73;12.65;;;;;;;5.09;43.96;101287.50;10387904;28;20059;-68
2022/03/01 09:56:51;;;;;;;23.50;12.23;;;;;;;5.09;42.28;101286.66;10388931;28;20057;-68
2022/03/01 10:01:54;;;;;;;19.90;11.95;;;;;;;5.30;42.07;101283.72;10385252;28;20324;-65
2022/03/01 10:06:56;;;;;;;20.88;12.73;;;;;;;5.36;42.36;101278.41;10388039;28;20049;-65
2022/03/01 10:12:04;;;;;;;22.08;11.95;;;;;;;5.67;40.39;101287.38;10389051;28;20079;-64
2022/03/01 10:17:14;;;;;;;18.65;11.60;;;;;;;5.61;38.43;101276.25;10388473;28;20156;-66
2022/03/01 10:22:16;;;;;;;19.83;11.37;;;;;;;5.36;41.39;101286.19;10387022;28;20049;-65
2022/03/01 10:27:27;;;;;;;19.52;12.13;;;;;;;5.29;40.74;101276.78;10388521;28;20053;-65
2022/03/01 10:32:29;;;;;;;18.73;11.50;;;;;;;5.33;41.58;101273.31;10376046;28;20161;-65
2022/03/01 10:37:34;;;;;;;18.08;12.50;;;;;;;5.68;41.22;101277.84;10388031;28;20132;-65
2022/03/01 10:42:36;;;;;;;17.95;10.95;;;;;;;5.97;40.64;101272.97;10387516;28;20111;-65
2022/03/01 10:47:38;;;;;;;20.00;11.95;;;;;;;5.80;40.19;101286.25;10388429;28;20052;-65
2022/03/01 10:52:42;;;;;;;21.15;11.93;;;;;;;5.84;39.65;101274.94;10387771;28;20840;-65
2022/03/01 10:57:43;;;;;;;21.20;11.65;;;;;;;5.99;40.19;101253.88;10377207;28;20131;-65
2022/03/01 11:02:45;;;;;;;17.20;11.82;;;;;;;5.80;40.00;101251.69;10378531;28;20084;-65
2022/03/01 11:07:49;;;;;;;19.60;11.95;;;;;;;5.91;39.75;101255.75;10374740;28;20530;-65
2022/03/01 11:12:53;;;;;;;18.02;11.55;;;;;;;5.95;40.30;101251.34;10382730;28;20517;-65
2022/03/01 11:18:21;;;;;;;20.05;11.60;;;;;;;6.00;38.89;101252.97;10385023;28;20049;-65
2022/03/01 11:23:25;;;;;;;16.30;10.88;;;;;;;6.15;38.91;101241.41;10383897;28;20162;-65
2022/03/01 11:28:39;;;;;;;18.35;10.23;;;;;;;6.44;37.62;101222.63;10379999;28;20326;-65
2022/03/01 11:33:41;;;;;;;17.55;10.43;;;;;;;6.28;37.72;101211.75;10382318;28;20524;-64
2022/03/01 11:38:43;;;;;;;16.00;10.25;;;;;;;6.52;38.38;101199.94;10381132;28;21081;-64
2022/03/01 11:43:55;;;;;;;15.55;9.60;;;;;;;6.60;36.46;101179.81;10380665;28;20060;-64
2022/03/01 11:49:05;;;;;;;16.25;10.02;;;;;;;6.71;37.09;101163.09;10382025;28;20060;-64
2022/03/01 11:54:11;;;;;;;14.98;9.75;;;;;;;6.71;35.17;101155.28;10381719;28;20045;-64
2022/03/01 11:59:13;;;;;;;15.07;9.50;;;;;;;6.87;35.88;101147.94;10382464;28;20506;-65
2022/03/01 12:04:44;;;;;;;17.63;9.88;;;;;;;6.87;34.55;101142.75;10383570;28;20052;-64
2022/03/01 12:09:57;;;;;;;15.90;9.45;;;;;;;7.05;33.83;101131.88;10380128;28;20304;-64
2022/03/01 12:14:59;;;;;;;15.63;10.23;;;;;;;6.96;36.07;101132.09;10383067;28;20498;-64
2022/03/01 12:20:01;;;;;;;15.43;9.95;;;;;;;6.96;36.05;101124.28;10382720;28;20056;-64
2022/03/01 12:25:03;;;;;;;14.43;9.60;;;;;;;6.92;35.52;101127.88;10383574;28;20056;-64
2022/03/01 12:30:06;;;;;;;16.17;9.43;;;;;;;7.07;34.72;101115.34;10382517;28;20513;-64
2022/03/01 12:35:07;;;;;;;17.33;9.20;;;;;;;7.20;34.52;101114.09;10382918;28;20068;-64
2022/03/01 12:40:10;;;;;;;15.70;9.50;;;;;;;7.39;33.85;101104.03;10377760;28;20833;-64
2022/03/01 12:45:12;;;;;;;14.95;9.40;;;;;;;7.36;35.52;101106.75;10382132;28;20128;-64
2022/03/01 12:50:18;;;;;;;17.77;9.57;;;;;;;7.61;33.19;101099.91;10378381;28;20045;-64
2022/03/01 12:55:20;;;;;;;16.40;8.65;;;;;;;7.60;33.69;101094.75;10385836;28;20053;-64
2022/03/01 13:00:23;;;;;;;15.95;9.10;;;;;;;7.76;33.50;101091.66;10389351;28;20049;-64
2022/03/01 13:05:28;;;;;;;15.70;8.57;;;;;;;7.91;32.62;101083.41;10390283;28;20041;-63
2022/03/01 13:10:33;;;;;;;14.05;9.23;;;;;;;7.69;32.36;101090.13;10380258;28;20037;-65
2022/03/01 13:15:39;;;;;;;15.80;9.48;;;;;;;7.67;33.14;101097.13;10388835;28;20045;-64
2022/03/01 13:20:41;;;;;;;15.00;9.20;;;;;;;7.71;33.74;101088.31;10387994;28;20494;-64
2022/03/01 13:25:44;;;;;;;16.00;8.85;;;;;;;7.58;34.11;101084.41;10383781;28;20052;-64
2022/03/01 13:30:46;;;;;;;13.80;9.10;;;;;;;7.81;33.63;101079.34;10386865;28;20076;-64
2022/03/01 13:35:47;;;;;;;18.10;9.75;;;;;;;7.88;33.21;101067.84;10387703;28;20057;-64
2022/03/01 13:40:49;;;;;;;20.17;9.23;;;;;;;8.24;32.77;101062.44;10388202;28;20049;-65
2022/03/01 13:46:00;;;;;;;16.10;9.40;;;;;;;8.44;31.51;101060.03;10388047;28;20053;-65
2022/03/01 13:51:06;;;;;;;14.73;8.98;;;;;;;8.81;32.37;101056.09;10387197;28;20061;-65
2022/03/01 13:56:08;;;;;;;13.70;9.07;;;;;;;8.70;33.32;101053.03;10387431;28;20136;-65
2022/03/01 14:01:10;;;;;;;16.60;9.98;;;;;;;8.65;31.68;101061.88;10380314;28;20133;-65
2022/03/01 14:06:13;;;;;;;17.73;9.52;;;;;;;8.65;31.36;101054.06;10387054;28;20168;-65
2022/03/01 14:11:16;;;;;;;13.43;8.85;;;;;;;8.54;31.14;101051.00;10384833;28;20071;-65
2022/03/01 14:16:22;;;;;;;14.27;8.70;;;;;;;8.50;31.30;101045.03;10385591;28;20485;-65
2022/03/01 14:21:25;;;;;;;14.00;8.93;;;;;;;8.67;30.63;101042.69;10379409;28;20057;-65
2022/03/01 14:26:28;;;;;;;12.40;8.82;;;;;;;8.43;30.78;101032.22;10384644;28;20053;-65
2022/03/01 14:31:32;;;;;;;12.43;8.30;;;;;;;8.36;31.16;101020.31;10386765;28;20132;-65
2022/03/01 14:36:34;;;;;;;21.63;9.68;;;;;;;8.52;31.37;101011.09;10387188;28;20136;-65
2022/03/01 14:41:36;;;;;;;14.35;9.02;;;;;;;8.54;31.74;101009.28;10386043;28;20080;-65
2022/03/01 14:46:39;;;;;;;12.98;8.43;;;;;;;8.59;31.47;100997.78;10385975;28;20061;-65
2022/03/01 14:51:42;;;;;;;14.90;9.10;;;;;;;8.59;31.23;100997.78;10384117;28;20049;-65
2022/03/01 14:56:45;;;;;;;14.55;9.20;;;;;;;8.62;30.57;101000.28;10384070;28;20421;-65
2022/03/01 15:01:47;;;;;;;15.95;9.38;;;;;;;8.41;30.32;100993.19;10385768;28;20081;-65
2022/03/01 15:06:49;;;;;;;13.27;8.48;;;;;;;8.46;30.66;100996.50;10382906;28;20533;-65
2022/03/01 15:11:51;;;;;;;14.98;8.93;;;;;;;8.69;31.09;100993.06;10382750;28;20045;-64
2022/03/01 15:16:53;;;;;;;12.95;8.70;;;;;;;8.84;30.95;100988.19;10382236;28;20107;-64
2022/03/01 15:21:55;;;;;;;16.88;9.32;;;;;;;8.62;30.22;100982.03;10382651;28;20052;-65
2022/03/01 15:26:56;;;;;;;14.00;8.32;;;;;;;8.10;30.44;100986.44;10381121;28;20053;-64
2022/03/01 15:31:58;;;;;;;13.32;9.05;;;;;;;7.97;31.03;100986.84;10380463;28;20844;-64
2022/03/01 15:37:01;;;;;;;13.93;9.23;;;;;;;8.04;31.86;100971.81;10414642;28;20049;-64
2022/03/01 15:42:04;;;;;;;14.88;8.48;;;;;;;7.94;32.45;100968.69;10381112;28;20064;-65
2022/03/01 15:47:07;;;;;;;16.23;8.68;;;;;;;7.82;32.18;100978.63;10382797;28;20085;-65
2022/03/01 15:52:10;;;;;;;13.48;8.00;;;;;;;7.84;32.66;100967.28;10381599;28;20045;-65
2022/03/01 15:57:12;;;;;;;16.50;8.90;;;;;;;7.78;33.46;100970.09;10382572;28;20093;-65
2022/03/01 16:02:15;;;;;;;14.48;8.70;;;;;;;7.75;32.70;100966.72;10381876;28;20057;-65
2022/03/01 16:07:17;;;;;;;13.38;8.50;;;;;;;7.64;33.72;100964.47;10382847;28;20045;-65
2022/03/01 16:12:21;;;;;;;15.75;9.30;;;;;;;7.51;35.25;100962.28;10381784;28;20084;-65
2022/03/01 16:17:23;;;;;;;15.85;9.43;;;;;;;7.24;33.73;100971.78;10380449;28;20136;-65
2022/03/01 16:22:25;;;;;;;14.63;9.52;;;;;;;7.08;34.49;100963.56;10380394;28;20041;-65
2022/03/01 16:27:26;;;;;;;15.90;9.82;;;;;;;6.93;35.17;100960.56;10379028;28;20046;-64
2022/03/01 16:32:28;;;;;;;15.52;10.10;;;;;;;6.83;36.42;100953.91;10382053;28;20060;-66
2022/03/01 16:37:30;;;;;;;16.67;10.60;;;;;;;6.71;36.36;100964.66;10391583;28;20214;-65
2022/03/01 16:42:32;;;;;;;18.75;10.18;;;;;;;6.53;36.59;100954.75;10388983;28;20582;-65
2022/03/01 16:47:38;;;;;;;15.05;10.18;;;;;;;6.27;37.03;100969.28;10391905;28;20402;-66
2022/03/01 16:52:41;;;;;;;16.00;9.80;;;;;;;6.16;37.59;100960.03;10382769;28;20244;-64
2022/03/01 16:57:43;;;;;;;16.65;10.20;;;;;;;6.05;37.65;100962.91;10388425;28;20057;-66
2022/03/01 17:02:44;;;;;;;16.92;9.98;;;;;;;5.99;37.90;100969.97;10389521;28;20053;-64
2022/03/01 17:07:46;;;;;;;15.85;9.65;;;;;;;5.99;37.54;100981.22;10388860;28;20057;-66
2022/03/01 17:12:48;;;;;;;16.63;10.18;;;;;;;5.97;36.71;100992.53;10390048;28;20057;-67
2022/03/01 17:17:51;;;;;;;16.65;10.35;;;;;;;5.93;37.11;100999.53;10390654;28;20060;-65
2022/03/01 17:22:52;;;;;;;16.95;9.93;;;;;;;5.89;37.97;101000.50;10386695;28;20057;-64
2022/03/01 17:27:54;;;;;;;18.25;10.77;;;;;;;5.82;39.16;100991.16;10389227;28;20049;-66
2022/03/01 17:32:56;;;;;;;16.48;10.30;;;;;;;5.80;40.01;100994.69;10389182;28;20060;-65
2022/03/01 17:37:59;;;;;;;18.13;10.50;;;;;;;5.69;39.11;100987.16;10386766;28;20041;-65
2022/03/01 17:43:01;;;;;;;18.02;10.57;;;;;;;5.68;39.46;100992.34;10383881;28;20045;-69
2022/03/01 17:48:03;;;;;;;17.23;10.98;;;;;;;5.70;39.66;101004.41;10380197;28;20506;-69
2022/03/01 17:53:05;;;;;;;19.70;9.95;;;;;;;5.53;39.18;101007.38;10384391;28;20041;-69
2022/03/01 17:58:07;;;;;;;14.63;8.85;;;;;;;5.38;40.58;101004.28;10387023;28;20128;-69
2022/03/01 18:03:09;;;;;;;17.08;9.40;;;;;;;5.27;40.86;101021.78;10381729;28;20046;-69
2022/03/01 18:08:12;;;;;;;16.45;8.95;;;;;;;5.18;40.44;101015.09;10386069;28;20056;-69
2022/03/01 18:13:14;;;;;;;15.88;9.43;;;;;;;5.11;40.58;101016.06;10386815;28;20417;-69
2022/03/01 18:18:16;;;;;;;18.73;8.85;;;;;;;5.10;40.32;101009.19;10385884;28;20056;-69
2022/03/01 18:23:22;;;;;;;14.13;9.02;;;;;;;5.03;40.28;101006.75;10387537;28;20060;-68
2022/03/01 18:28:25;;;;;;;16.83;9.68;;;;;;;4.98;40.62;101006.00;10387498;28;20053;-68
2022/03/01 18:33:27;;;;;;;14.18;9.23;;;;;;;4.99;40.31;101018.06;10387045;28;20097;-69
2022/03/01 18:38:29;;;;;;;15.68;10.50;;;;;;;4.93;40.86;101015.59;10383800;28;20136;-69
2022/03/01 18:43:31;;;;;;;19.17;11.57;;;;;;;4.84;40.81;101005.41;10386113;28;20046;-68
2022/03/01 18:48:33;;;;;;;21.65;12.48;;;;;;;4.63;41.37;101006.66;10373123;28;20049;-67
2022/03/01 18:53:34;;;;;;;19.80;12.85;;;;;;;4.48;41.14;100994.84;10383680;28;20541;-68
2022/03/01 18:58:38;;;;;;;24.08;12.32;;;;;;;4.26;42.03;100996.09;10384412;28;20048;-69
2022/03/01 19:03:43;;;;;;;23.02;12.30;;;;;;;4.14;42.65;101006.66;10385416;28;20132;-68
2022/03/01 19:08:48;;;;;;;16.80;10.70;;;;;;;4.04;42.98;101005.13;10385750;28;20055;-69
2022/03/01 19:13:50;;;;;;;18.55;10.40;;;;;;;3.97;43.27;100997.44;10416355;28;20056;-69
2022/03/01 19:18:52;;;;;;;17.10;9.60;;;;;;;3.86;42.32;101006.22;10367651;28;20199;-68
2022/03/01 19:23:54;;;;;;;18.30;10.65;;;;;;;3.77;43.55;100996.00;10384505;28;20565;-68
2022/03/01 19:28:56;;;;;;;19.27;10.00;;;;;;;3.64;43.39;100993.63;10373785;28;20045;-67
2022/03/01 19:33:58;;;;;;;19.48;12.55;;;;;;;3.51;44.60;100985.19;10384541;28;20060;-68
2022/03/01 19:38:59;;;;;;;22.17;14.07;;;;;;;3.38;45.97;101001.75;10386434;28;20046;-68
2022/03/01 19:44:01;;;;;;;20.83;11.45;;;;;;;3.28;46.66;101000.16;10379393;28;20049;-68
2022/03/01 19:49:03;;;;;;;16.60;9.68;;;;;;;3.18;46.92;101013.22;10385670;28;20158;-67
2022/03/01 19:54:06;;;;;;;18.60;9.73;;;;;;;3.09;46.67;101008.19;10386021;28;20116;-67
2022/03/01 19:59:08;;;;;;;15.90;10.20;;;;;;;2.95;47.02;101014.34;10384182;28;20445;-68
2022/03/01 20:04:10;;;;;;;21.35;10.57;;;;;;;2.89;47.23;101017.00;10385000;28;20056;-68
2022/03/01 20:09:11;;;;;;;20.13;11.40;;;;;;;2.94;48.08;101024.72;10385061;28;20285;-68
2022/03/01 20:14:13;;;;;;;20.15;11.40;;;;;;;2.84;47.39;101011.06;10386481;28;20053;-68
2022/03/01 20:19:16;;;;;;;18.65;12.02;;;;;;;2.81;48.00;101016.25;10385418;28;20053;-68
2022/03/01 20:24:18;;;;;;;21.63;12.77;;;;;;;2.84;48.14;101007.59;10384748;28;20041;-68
2022/03/01 20:29:20;;;;;;;18.38;11.07;;;;;;;2.85;48.45;101009.31;10372620;28;20060;-68
2022/03/01 20:34:24;;;;;;;23.88;13.05;;;;;;;2.80;48.11;101006.78;10383047;28;20057;-68
2022/03/01 20:39:26;;;;;;;26.45;14.50;;;;;;;2.76;48.28;101004.25;10382710;28;20128;-68
2022/03/01 20:44:28;;;;;;;26.23;14.73;;;;;;;2.63;48.59;101013.00;10383838;28;20042;-68
2022/03/01 20:49:30;;;;;;;22.45;13.55;;;;;;;2.66;49.31;101006.06;10382692;28;20080;-68
2022/03/01 20:54:32;;;;;;;24.13;11.63;;;;;;;2.67;48.95;101002.63;10380148;28;20054;-68
2022/03/01 20:59:33;;;;;;;19.35;10.48;;;;;;;2.59;48.19;101001.84;10371978;28;20137;-68
2022/03/01 21:04:35;;;;;;;19.83;9.35;;;;;;;2.56;48.74;101006.19;10383278;28;20041;-68
2022/03/01 21:09:37;;;;;;;17.80;9.90;;;;;;;2.73;49.15;100999.97;10382720;28;20051;-68
2022/03/01 21:14:39;;;;;;;18.30;10.85;;;;;;;2.80;49.39;101003.34;10382792;28;20045;-68
2022/03/01 21:19:43;;;;;;;19.50;12.52;;;;;;;2.85;49.29;101005.00;10390668;28;20210;-68
2022/03/01 21:24:45;;;;;;;23.65;14.55;;;;;;;2.86;49.02;101004.13;10389438;28;20055;-68
2022/03/01 21:29:46;;;;;;;19.38;12.10;;;;;;;2.88;48.86;100999.81;10390613;28;20072;-69
2022/03/01 21:34:49;;;;;;;19.83;12.50;;;;;;;2.71;49.01;101000.84;10389431;28;20653;-69
2022/03/01 21:39:53;;;;;;;12.85;8.80;;;;;;;2.79;49.06;100993.88;10387153;28;20069;-68
2022/03/01 21:44:55;;;;;;;15.13;9.38;;;;;;;2.88;49.16;100992.06;10389221;28;20053;-68
2022/03/01 21:49:58;;;;;;;14.05;9.50;;;;;;;2.89;48.83;100985.13;10389707;28;20049;-68
2022/03/01 21:54:59;;;;;;;22.08;13.15;;;;;;;2.84;49.15;100981.78;10389624;28;20055;-68
2022/03/01 22:00:05;;;;;;;21.67;13.48;;;;;;;2.79;49.95;100986.13;10388422;28;20046;-67
2022/03/01 22:05:09;;;;;;;22.40;13.15;;;;;;;2.77;50.05;100983.56;10389207;28;20045;-68
2022/03/01 22:10:12;;;;;;;20.00;12.15;;;;;;;2.75;49.71;100982.72;10388692;28;20152;-68
2022/03/01 22:15:16;;;;;;;16.95;10.43;;;;;;;2.67;49.47;100983.69;10388693;28;20140;-69
2022/03/01 22:20:21;;;;;;;15.75;10.55;;;;;;;2.53;50.11;100986.41;10387919;28;20111;-68
2022/03/01 22:25:23;;;;;;;18.98;11.60;;;;;;;2.49;50.30;100979.56;10386525;28;20407;-69
2022/03/01 22:30:25;;;;;;;25.08;13.75;;;;;;;2.39;50.52;100982.25;10386904;28;20218;-70
2022/03/01 22:35:27;;;;;;;18.15;11.93;;;;;;;2.23;50.53;100976.41;10387642;28;20061;-69
2022/03/01 22:40:29;;;;;;;19.30;11.10;;;;;;;1.98;50.73;100960.28;10386744;28;20170;-69
2022/03/01 22:45:30;;;;;;;19.65;10.68;;;;;;;1.78;50.76;100966.47;10386790;28;20038;-69
2022/03/01 22:50:35;;;;;;;23.30;13.30;;;;;;;1.50;52.23;100962.38;10385666;28;20044;-69
2022/03/01 22:55:39;;;;;;;20.80;12.73;;;;;;;1.38;53.21;100957.31;10386152;28;20157;-68
2022/03/01 23:01:06;;;;;;;18.27;12.15;;;;;;;1.49;53.20;100947.75;10385168;28;20053;-68